createdAt,value
2018-03-23T00:01:44.663Z,73.68
2018-03-23T00:04:13.274Z,73.59
2018-03-23T00:06:41.849Z,73.59
2018-03-23T00:09:12.246Z,73.44
2018-03-23T00:11:41.017Z,73.63
2018-03-23T00:14:09.539Z,73.87
2018-03-23T00:16:38.227Z,74.10
2018-03-23T00:19:07.123Z,74.08
2018-03-23T00:21:35.688Z,73.93
2018-03-23T00:24:06.180Z,73.85
2018-03-23T00:26:34.710Z,73.67
2018-03-23T00:29:03.342Z,73.69
2018-03-23T00:31:31.881Z,73.61
2018-03-23T00:34:00.446Z,73.54
2018-03-23T00:36:28.928Z,73.48
2018-03-23T00:38:57.430Z,73.20
2018-03-23T00:41:26.003Z,73.54
2018-03-23T00:43:54.497Z,73.65
2018-03-23T00:46:23.164Z,73.67
2018-03-23T00:48:51.734Z,73.77
2018-03-23T00:51:20.225Z,73.44
2018-03-23T00:53:48.816Z,73.42
2018-03-23T00:56:17.394Z,73.57
2018-03-23T00:58:45.916Z,73.85
2018-03-23T01:01:14.690Z,73.96
2018-03-23T01:03:43.354Z,74.11
2018-03-23T01:06:11.938Z,74.06
2018-03-23T01:08:40.555Z,74.09
2018-03-23T01:11:09.109Z,73.98
2018-03-23T01:13:37.613Z,73.98
2018-03-23T01:16:06.277Z,74.15
2018-03-23T01:18:34.944Z,74.25
2018-03-23T01:21:03.499Z,74.33
2018-03-23T01:23:32.990Z,74.34
2018-03-23T01:26:01.529Z,74.67
2018-03-23T01:28:29.948Z,74.40
2018-03-23T01:30:58.631Z,74.24
2018-03-23T01:33:27.090Z,74.20
2018-03-23T01:35:55.529Z,74.05
2018-03-23T01:38:24.053Z,73.98
2018-03-23T01:40:52.508Z,73.89
2018-03-23T01:43:20.961Z,73.87
2018-03-23T01:45:49.601Z,74.18
2018-03-23T01:48:18.156Z,74.09
2018-03-23T01:50:46.729Z,73.94
2018-03-23T01:53:27.215Z,73.79
2018-03-23T01:55:55.623Z,73.39
2018-03-23T01:58:24.069Z,73.47
2018-03-23T02:00:52.595Z,73.43
2018-03-23T02:03:21.076Z,73.31
2018-03-23T02:05:49.746Z,73.19
2018-03-23T02:08:18.498Z,73.32
2018-03-23T02:10:46.962Z,73.10
2018-03-23T02:13:15.567Z,73.06
2018-03-23T02:15:44.355Z,73.10
2018-03-23T02:18:13.043Z,72.93
2018-03-23T02:20:41.622Z,72.80
2018-03-23T02:23:10.307Z,72.81
2018-03-23T02:25:38.891Z,72.86
2018-03-23T02:28:07.517Z,73.06
2018-03-23T02:30:36.283Z,72.93
2018-03-23T02:33:04.943Z,72.99
2018-03-23T02:35:34.555Z,73.01
2018-03-23T02:38:03.162Z,73.04
2018-03-23T02:40:31.691Z,73.79
2018-03-23T02:43:00.112Z,73.79
2018-03-23T02:45:28.601Z,73.92
2018-03-23T02:47:57.095Z,74.34
2018-03-23T02:50:25.752Z,73.79
2018-03-23T02:52:54.701Z,74.04
2018-03-23T02:55:23.218Z,73.64
2018-03-23T02:57:51.708Z,73.37
2018-03-23T03:00:20.290Z,73.21
2018-03-23T03:02:48.878Z,73.41
2018-03-23T03:05:17.388Z,73.34
2018-03-23T03:07:46.057Z,73.20
2018-03-23T03:10:14.720Z,73.41
2018-03-23T03:12:43.549Z,73.66
2018-03-23T03:15:12.302Z,73.55
2018-03-23T03:17:40.991Z,73.60
2018-03-23T03:20:09.577Z,73.96
2018-03-23T03:22:38.330Z,74.79
2018-03-23T03:25:07.048Z,75.12
2018-03-23T03:27:35.632Z,74.50
2018-03-23T03:30:04.739Z,73.92
2018-03-23T03:32:33.355Z,73.47
2018-03-23T03:35:01.900Z,73.40
2018-03-23T03:37:30.482Z,72.94
2018-03-23T03:39:59.061Z,73.61
2018-03-23T03:42:31.466Z,74.14
2018-03-23T03:45:00.022Z,74.36
2018-03-23T03:47:28.505Z,74.33
2018-03-23T03:49:57.192Z,74.25
2018-03-23T03:52:25.668Z,74.46
2018-03-23T03:54:54.138Z,74.77
2018-03-23T03:57:22.654Z,74.47
2018-03-23T03:59:51.141Z,74.68
2018-03-23T04:02:19.599Z,74.46
2018-03-23T04:04:52.112Z,74.02
2018-03-23T04:07:20.642Z,73.83
2018-03-23T04:09:49.151Z,74.19
2018-03-23T04:12:24.408Z,73.91
2018-03-23T04:14:52.947Z,74.20
2018-03-23T04:17:23.521Z,74.85
2018-03-23T04:19:52.061Z,74.78
2018-03-23T04:22:20.743Z,75.54
2018-03-23T04:24:49.326Z,75.62
2018-03-23T04:27:17.808Z,75.37
2018-03-23T04:29:46.396Z,74.98
2018-03-23T04:32:14.875Z,74.48
2018-03-23T04:34:43.357Z,74.21
2018-03-23T04:37:11.839Z,74.23
2018-03-23T04:39:53.324Z,74.04
2018-03-23T04:42:21.804Z,74.78
2018-03-23T04:44:50.295Z,74.71
2018-03-23T04:47:18.868Z,74.98
2018-03-23T04:49:47.350Z,75.04
2018-03-23T04:52:15.856Z,74.89
2018-03-23T04:54:44.725Z,75.16
2018-03-23T04:57:13.241Z,75.02
2018-03-23T04:59:41.787Z,74.36
2018-03-23T05:02:10.392Z,73.90
2018-03-23T05:04:38.925Z,73.30
2018-03-23T05:07:07.458Z,72.70
2018-03-23T05:09:36.262Z,72.42
2018-03-23T05:12:05.085Z,73.01
2018-03-23T05:14:33.671Z,73.35
2018-03-23T05:17:02.485Z,73.32
2018-03-23T05:19:30.969Z,73.51
2018-03-23T05:21:59.520Z,73.52
2018-03-23T05:24:28.309Z,73.22
2018-03-23T05:26:56.827Z,72.78
2018-03-23T05:29:25.405Z,72.77
2018-03-23T05:31:54.021Z,72.44
2018-03-23T05:34:22.773Z,72.12
2018-03-23T05:36:51.260Z,73.44
2018-03-23T05:39:19.848Z,72.45
2018-03-23T05:41:48.353Z,71.74
2018-03-23T05:44:17.038Z,71.66
2018-03-23T05:46:45.598Z,72.85
2018-03-23T05:49:14.183Z,73.09
2018-03-23T05:51:42.705Z,72.25
2018-03-23T05:54:11.447Z,71.43
2018-03-23T05:56:40.129Z,71.47
2018-03-23T05:59:08.615Z,69.51
2018-03-23T06:01:37.309Z,68.87
2018-03-23T06:04:06.118Z,70.81
2018-03-23T06:06:35.117Z,70.27
2018-03-23T06:09:03.929Z,70.12
2018-03-23T06:11:32.687Z,70.08
2018-03-23T06:14:01.336Z,70.28
2018-03-23T06:16:30.138Z,70.34
2018-03-23T06:18:58.722Z,69.95
2018-03-23T06:21:27.364Z,69.77
2018-03-23T06:23:56.110Z,69.07
2018-03-23T06:26:24.573Z,68.72
2018-03-23T06:28:53.170Z,68.52
2018-03-23T06:31:21.783Z,70.34
2018-03-23T06:33:50.419Z,70.06
2018-03-23T06:36:19.003Z,69.55
2018-03-23T06:38:47.788Z,69.40
2018-03-23T06:41:16.677Z,69.33
2018-03-23T06:43:45.266Z,69.80
2018-03-23T06:46:13.896Z,69.83
2018-03-23T06:48:42.475Z,70.53
2018-03-23T06:51:11.268Z,69.75
2018-03-23T06:53:39.950Z,69.01
2018-03-23T06:56:08.721Z,68.80
2018-03-23T06:58:37.528Z,69.57
2018-03-23T07:01:06.081Z,69.42
2018-03-23T07:03:34.592Z,69.07
2018-03-23T07:06:03.176Z,68.17
2018-03-23T07:08:31.742Z,67.83
2018-03-23T07:11:00.329Z,67.87
2018-03-23T07:13:28.907Z,68.36
2018-03-23T07:15:58.228Z,68.08
2018-03-23T07:18:26.814Z,69.57
2018-03-23T07:20:55.248Z,69.86
2018-03-23T07:23:23.889Z,69.90
2018-03-23T07:25:54.465Z,69.61
2018-03-23T07:28:22.953Z,68.63
2018-03-23T07:30:51.531Z,68.43
2018-03-23T07:33:20.070Z,68.50
2018-03-23T07:35:48.785Z,68.34
2018-03-23T07:38:17.274Z,67.78
2018-03-23T07:40:47.806Z,67.43
2018-03-23T07:43:16.298Z,67.56
2018-03-23T07:45:45.129Z,67.69
2018-03-23T07:48:14.075Z,68.29
2018-03-23T07:50:43.892Z,67.62
2018-03-23T07:53:12.675Z,67.70
2018-03-23T07:55:41.448Z,66.97
2018-03-23T07:58:12.280Z,67.13
2018-03-23T08:00:41.104Z,67.93
2018-03-23T08:03:09.669Z,68.65
2018-03-23T08:05:38.754Z,68.26
2018-03-23T08:08:07.467Z,68.55
2018-03-23T08:10:36.483Z,69.00
2018-03-23T08:13:05.058Z,69.45
2018-03-23T08:15:33.710Z,69.49
2018-03-23T08:18:02.184Z,68.37
2018-03-23T08:20:30.708Z,68.10
2018-03-23T08:22:59.375Z,68.13
2018-03-23T08:25:27.948Z,67.80
2018-03-23T08:27:56.636Z,67.48
2018-03-23T08:30:25.930Z,66.81
2018-03-23T08:38:37.135Z,67.12
2018-03-23T08:41:06.006Z,67.31
2018-03-23T08:43:35.767Z,67.69
2018-03-23T08:46:05.764Z,67.33
2018-03-23T08:48:35.171Z,65.73
2018-03-23T08:51:03.756Z,65.84
2018-03-23T08:53:35.044Z,66.13
2018-03-23T08:56:04.282Z,66.08
2018-03-23T08:58:32.682Z,66.86
2018-03-23T09:01:07.070Z,65.82
2018-03-23T09:03:35.584Z,65.96
2018-03-23T09:06:04.004Z,65.63
2018-03-23T09:08:32.424Z,66.25
2018-03-23T09:11:00.842Z,66.54
2018-03-23T09:13:29.294Z,66.02
2018-03-23T09:15:57.835Z,65.63
2018-03-23T09:18:26.177Z,65.15
2018-03-23T09:20:54.620Z,64.93
2018-03-23T09:23:23.229Z,64.71
2018-03-23T09:25:52.432Z,65.27
2018-03-23T09:28:20.988Z,65.55
2018-03-23T09:30:49.673Z,64.68
2018-03-23T09:33:18.352Z,64.53
2018-03-23T09:35:46.907Z,64.70
2018-03-23T09:38:15.423Z,65.47
2018-03-23T09:40:43.862Z,66.44
2018-03-23T09:43:12.725Z,66.42
2018-03-23T09:45:41.889Z,65.39
2018-03-23T09:48:10.539Z,65.17
2018-03-23T09:50:39.028Z,66.59
2018-03-23T09:53:07.802Z,66.01
2018-03-23T09:55:36.336Z,66.46
2018-03-23T09:58:04.945Z,66.16
2018-03-23T10:00:33.459Z,66.59
2018-03-23T10:03:01.852Z,67.22
2018-03-23T10:05:30.303Z,67.17
2018-03-23T10:07:59.212Z,67.13
2018-03-23T10:10:27.591Z,66.45
2018-03-23T10:12:55.999Z,66.31
2018-03-23T10:15:24.884Z,66.41
2018-03-23T10:26:27.834Z,67.37
2018-03-23T10:28:56.201Z,67.27
2018-03-23T10:31:24.601Z,66.87
2018-03-23T10:33:53.512Z,67.24
2018-03-23T10:36:22.278Z,66.67
2018-03-23T10:38:50.754Z,66.28
2018-03-23T10:41:19.443Z,65.84
2018-03-23T10:43:47.981Z,65.69
2018-03-23T10:46:16.407Z,65.89
2018-03-23T10:48:44.947Z,65.48
2018-03-23T10:51:13.633Z,65.22
2018-03-23T10:53:42.387Z,64.32
2018-03-23T10:56:12.630Z,64.33
2018-03-23T10:58:41.226Z,64.58
2018-03-23T11:01:15.994Z,64.55
2018-03-23T11:03:44.477Z,64.89
2018-03-23T11:06:12.965Z,64.69
2018-03-23T11:08:41.446Z,64.84
2018-03-23T11:11:09.873Z,64.69
2018-03-23T11:13:38.828Z,65.47
2018-03-23T11:16:07.737Z,64.16
2018-03-23T11:18:36.302Z,63.18
2018-03-23T11:21:04.686Z,63.03
2018-03-23T11:23:33.137Z,62.64
2018-03-23T11:26:01.659Z,63.06
2018-03-23T11:34:15.938Z,63.37
2018-03-23T11:36:44.690Z,64.17
2018-03-23T11:39:13.122Z,63.77
2018-03-23T11:41:42.031Z,63.90
2018-03-23T11:44:10.901Z,63.16
2018-03-23T11:46:39.991Z,63.33
2018-03-23T11:49:08.996Z,64.08
2018-03-23T11:51:38.268Z,64.33
2018-03-23T11:54:06.918Z,64.83
2018-03-23T11:56:36.590Z,64.61
2018-03-23T11:59:04.990Z,64.47
2018-03-23T12:01:33.501Z,64.72
2018-03-23T12:04:02.407Z,64.16
2018-03-23T12:06:31.146Z,64.54
2018-03-23T12:11:51.765Z,62.82
2018-03-23T12:14:21.985Z,62.92
2018-03-23T12:16:50.459Z,63.12
2018-03-23T12:19:19.107Z,63.28
2018-03-23T12:21:47.534Z,62.42
2018-03-23T12:24:17.082Z,61.25
2018-03-23T12:32:30.118Z,58.15
2018-03-23T12:34:58.735Z,58.27
2018-03-23T12:37:27.112Z,59.29
2018-03-23T12:39:56.468Z,59.94
2018-03-23T12:42:24.846Z,60.79
2018-03-23T12:44:53.338Z,60.14
2018-03-23T12:47:21.771Z,60.53
2018-03-23T12:50:01.903Z,60.98
2018-03-23T12:52:30.547Z,61.33
2018-03-23T12:54:58.877Z,61.35
2018-03-23T12:57:27.291Z,61.16
2018-03-23T12:59:55.826Z,61.66
2018-03-23T13:02:24.198Z,61.24
2018-03-23T13:04:52.658Z,61.45
2018-03-23T13:07:21.058Z,61.55
2018-03-23T13:09:49.424Z,60.47
2018-03-23T13:12:17.797Z,59.96
2018-03-23T13:14:46.288Z,59.92
2018-03-23T13:17:14.741Z,60.46
2018-03-23T13:19:43.250Z,60.88
2018-03-23T13:22:13.524Z,61.10
2018-03-23T13:24:42.065Z,61.23
2018-03-23T13:27:10.598Z,60.97
2018-03-23T13:29:39.122Z,59.54
2018-03-23T13:32:07.529Z,59.75
2018-03-23T13:34:35.988Z,59.83
2018-03-23T13:37:04.901Z,59.41
2018-03-23T13:39:33.271Z,59.63
2018-03-23T13:42:01.640Z,60.09
2018-03-23T13:44:31.768Z,60.23
2018-03-23T13:47:00.138Z,59.28
2018-03-23T13:49:30.576Z,59.91
2018-03-23T13:51:58.987Z,60.04
2018-03-23T13:54:27.347Z,59.54
2018-03-23T13:56:55.722Z,59.76
2018-03-23T13:59:29.644Z,59.02
2018-03-23T14:01:58.033Z,58.69
2018-03-23T14:04:26.451Z,58.56
2018-03-23T14:06:54.862Z,58.76
2018-03-23T14:09:23.203Z,58.01
2018-03-23T14:11:51.602Z,57.62
2018-03-23T14:14:20.038Z,58.12
2018-03-23T14:16:48.502Z,58.13
2018-03-23T14:19:16.991Z,58.54
2018-03-23T14:21:45.739Z,58.84
2018-03-23T14:24:14.278Z,59.33
2018-03-23T14:26:42.702Z,59.44
2018-03-23T14:29:11.355Z,59.38
2018-03-23T14:31:39.798Z,59.79
2018-03-23T14:34:08.374Z,60.22
2018-03-23T14:36:37.388Z,60.76
2018-03-23T14:39:05.908Z,61.06
2018-03-23T14:41:34.253Z,61.33
2018-03-23T14:44:02.722Z,61.25
2018-03-23T14:46:31.120Z,61.33
2018-03-23T14:48:59.497Z,61.75
2018-03-23T14:51:27.995Z,61.74
2018-03-23T14:53:56.396Z,61.85
2018-03-23T14:56:24.785Z,61.72
2018-03-23T15:01:58.197Z,61.25
2018-03-23T15:04:26.806Z,61.16
2018-03-23T15:06:55.183Z,61.62
2018-03-23T15:09:28.250Z,62.03
2018-03-23T15:11:56.629Z,61.66
2018-03-23T15:14:31.985Z,61.42
2018-03-23T15:17:00.350Z,61.65
2018-03-23T15:19:28.747Z,61.86
2018-03-23T15:21:57.699Z,62.02
2018-03-23T15:24:26.095Z,62.28
2018-03-23T15:26:54.568Z,61.89
2018-03-23T15:29:23.061Z,62.11
2018-03-23T15:31:52.044Z,62.28
2018-03-23T15:34:20.507Z,62.00
2018-03-23T15:36:50.428Z,61.85
2018-03-23T15:39:18.824Z,61.89
2018-03-23T15:41:47.249Z,62.10
2018-03-23T15:44:16.794Z,62.18
2018-03-23T15:46:45.160Z,62.13
2018-03-23T15:49:13.572Z,62.30
2018-03-23T15:51:42.577Z,61.63
2018-03-23T15:54:11.056Z,61.73
2018-03-23T15:56:39.514Z,62.20
2018-03-23T15:59:08.004Z,62.35
2018-03-23T16:01:36.431Z,62.42
2018-03-23T16:04:04.813Z,62.68
2018-03-23T16:06:33.198Z,62.60
2018-03-23T16:09:01.603Z,62.51
2018-03-23T16:11:30.025Z,62.82
2018-03-23T16:13:58.812Z,62.60
2018-03-23T16:16:27.273Z,62.52
2018-03-23T16:18:55.860Z,62.40
2018-03-23T16:21:25.105Z,62.37
2018-03-23T16:23:54.096Z,62.52
2018-03-23T16:26:22.602Z,62.75
2018-03-23T16:28:51.818Z,62.87
2018-03-23T16:31:20.278Z,63.08
2018-03-23T16:33:48.780Z,63.10
2018-03-23T16:36:17.319Z,63.53
2018-03-23T16:38:45.763Z,63.76
2018-03-23T16:41:14.533Z,64.08
2018-03-23T16:43:44.027Z,63.68
2018-03-23T16:46:12.560Z,63.65
2018-03-23T16:48:41.097Z,63.72
2018-03-23T16:51:10.293Z,63.19
2018-03-23T16:53:40.921Z,63.14
2018-03-23T16:56:09.913Z,63.47
2018-03-23T16:58:38.402Z,63.42
2018-03-23T17:01:06.764Z,63.59
2018-03-23T17:03:35.140Z,63.74
2018-03-23T17:06:03.644Z,63.58
2018-03-23T17:08:32.085Z,63.74
2018-03-23T17:11:00.754Z,63.88
2018-03-23T17:13:29.176Z,64.01
2018-03-23T17:15:57.605Z,63.94
2018-03-23T17:18:25.984Z,63.95
2018-03-23T17:20:54.388Z,64.22
2018-03-23T17:23:23.385Z,64.24
2018-03-23T17:25:51.817Z,64.56
2018-03-23T17:28:20.392Z,64.94
2018-03-23T17:30:48.906Z,64.91
2018-03-23T17:33:17.375Z,64.72
2018-03-23T17:35:47.565Z,64.88
2018-03-23T17:38:16.152Z,64.95
2018-03-23T17:40:44.723Z,65.04
2018-03-23T17:43:13.730Z,64.92
2018-03-23T17:45:42.130Z,64.80
2018-03-23T17:48:10.667Z,65.10
2018-03-23T17:50:39.887Z,65.23
2018-03-23T17:53:09.392Z,65.39
2018-03-23T17:55:37.744Z,65.47
2018-03-23T17:58:06.176Z,65.24
2018-03-23T18:00:34.610Z,65.02
2018-03-23T18:03:03.020Z,65.24
2018-03-23T18:05:31.430Z,65.18
2018-03-23T18:08:00.073Z,65.27
2018-03-23T18:10:28.656Z,65.50
2018-03-23T18:12:57.130Z,65.68
2018-03-23T18:15:25.548Z,65.46
2018-03-23T18:17:54.348Z,65.53
2018-03-23T18:20:23.475Z,65.51
2018-03-23T18:22:52.021Z,65.91
2018-03-23T18:25:21.815Z,65.88
2018-03-23T18:27:50.711Z,65.54
2018-03-23T18:30:19.908Z,65.77
2018-03-23T18:32:49.431Z,66.22
2018-03-23T18:35:18.093Z,66.09
2018-03-23T18:37:46.491Z,65.96
2018-03-23T18:40:15.056Z,65.88
2018-03-23T18:42:43.606Z,65.91
2018-03-23T18:45:12.273Z,66.32
2018-03-23T18:47:40.898Z,66.30
2018-03-23T18:50:09.302Z,66.47
2018-03-23T18:52:38.076Z,66.51
2018-03-23T18:55:06.577Z,66.37
2018-03-23T18:57:35.052Z,66.39
2018-03-23T19:00:11.197Z,66.51
2018-03-23T19:02:40.223Z,66.78
2018-03-23T19:05:08.701Z,66.72
2018-03-23T19:07:37.194Z,66.62
2018-03-23T19:10:05.981Z,66.24
2018-03-23T19:12:34.636Z,66.42
2018-03-23T19:15:03.136Z,66.50
2018-03-23T19:17:31.673Z,66.53
2018-03-23T19:20:00.256Z,66.50
2018-03-23T19:22:29.056Z,66.60
2018-03-23T19:24:58.040Z,66.78
2018-03-23T19:27:26.533Z,66.60
2018-03-23T19:29:55.565Z,66.58
2018-03-23T19:32:24.784Z,66.76
2018-03-23T19:34:53.666Z,66.77
2018-03-23T19:37:22.371Z,66.79
2018-03-23T19:39:51.768Z,66.72
2018-03-23T19:42:21.413Z,66.83
2018-03-23T19:44:50.147Z,66.60
2018-03-23T19:47:19.586Z,66.60
2018-03-23T19:49:48.829Z,66.76
2018-03-23T19:52:17.992Z,67.16
2018-03-23T19:54:47.403Z,67.02
2018-03-23T19:57:16.343Z,67.20
2018-03-23T19:59:45.801Z,67.54
2018-03-23T20:02:16.013Z,67.82
2018-03-23T20:04:45.706Z,68.28
2018-03-23T20:07:14.979Z,68.65
2018-03-23T20:09:44.528Z,69.11
2018-03-23T20:12:13.828Z,69.25
2018-03-23T20:14:42.833Z,69.34
2018-03-23T20:17:12.430Z,69.52
2018-03-23T20:19:42.702Z,69.47
2018-03-23T20:22:12.868Z,69.91
2018-03-23T20:24:43.649Z,70.18
2018-03-23T20:27:17.930Z,69.95
2018-03-23T20:29:48.552Z,70.34
2018-03-23T20:32:22.784Z,70.19
2018-03-23T20:34:51.350Z,70.30
2018-03-23T20:37:20.843Z,70.32
2018-03-23T20:39:49.535Z,70.13
2018-03-23T20:42:18.366Z,70.03
2018-03-23T20:44:47.645Z,70.11
2018-03-23T20:47:16.763Z,70.27
2018-03-23T20:49:45.748Z,70.29
2018-03-23T20:52:17.866Z,69.89
2018-03-23T20:54:48.192Z,69.75
2018-03-23T20:57:16.918Z,69.96
2018-03-23T20:59:45.587Z,70.18
2018-03-23T21:02:14.510Z,70.26
2018-03-23T21:04:44.053Z,70.46
2018-03-23T21:07:13.913Z,70.24
2018-03-23T21:09:43.497Z,70.10
2018-03-23T21:12:12.494Z,69.92
2018-03-23T21:14:43.046Z,70.01
2018-03-23T21:17:13.119Z,70.10
2018-03-23T21:19:42.362Z,70.33
2018-03-23T21:22:11.718Z,70.80
2018-03-23T21:24:41.807Z,71.40
2018-03-23T21:27:11.894Z,71.56
2018-03-23T21:29:40.687Z,71.79
2018-03-23T21:32:09.411Z,71.72
2018-03-23T21:34:37.881Z,71.80
2018-03-23T21:37:06.289Z,72.14
2018-03-23T21:39:35.099Z,72.28
2018-03-23T21:42:03.491Z,72.65
2018-03-23T21:44:31.903Z,72.22
2018-03-23T21:47:00.383Z,72.62
2018-03-23T21:49:28.853Z,72.98
2018-03-23T21:51:57.266Z,73.37
2018-03-23T21:54:26.167Z,72.97
2018-03-23T21:56:54.651Z,73.16
2018-03-23T21:59:23.125Z,73.13
2018-03-23T22:01:52.530Z,72.36
2018-03-23T22:04:21.112Z,72.12
2018-03-23T22:06:49.678Z,72.55
2018-03-23T22:09:20.227Z,73.15
2018-03-23T22:11:49.979Z,73.23
2018-03-23T22:14:18.465Z,73.75
2018-03-23T22:16:47.768Z,73.68
2018-03-23T22:19:16.390Z,73.40
2018-03-23T22:21:45.340Z,73.57
2018-03-23T22:24:14.182Z,73.76
2018-03-23T22:26:43.174Z,73.60
2018-03-23T22:29:12.121Z,73.73
2018-03-23T22:31:40.806Z,74.11
2018-03-23T22:34:09.343Z,74.07
2018-03-23T22:36:37.748Z,73.41
2018-03-23T22:39:06.273Z,73.00
2018-03-23T22:41:34.690Z,73.54
2018-03-23T22:44:03.172Z,73.33
2018-03-23T22:46:31.770Z,73.56
2018-03-23T22:49:00.301Z,73.50
2018-03-23T22:51:28.768Z,73.70
2018-03-23T22:53:57.341Z,73.75
2018-03-23T22:56:27.551Z,73.49
2018-03-23T22:58:55.970Z,73.46
2018-03-23T23:01:24.814Z,73.48
2018-03-23T23:03:59.317Z,73.71
2018-03-23T23:06:28.445Z,73.58
2018-03-23T23:08:56.838Z,73.81
2018-03-23T23:11:25.409Z,73.82
2018-03-23T23:13:54.101Z,73.73
2018-03-23T23:16:22.636Z,73.58
2018-03-23T23:18:52.761Z,73.66
2018-03-23T23:21:21.854Z,73.67
2018-03-23T23:23:50.379Z,73.67
2018-03-23T23:26:18.814Z,73.93
2018-03-23T23:28:47.558Z,73.81
2018-03-23T23:31:16.189Z,73.65
2018-03-23T23:33:44.816Z,73.76
2018-03-23T23:36:13.800Z,73.51
2018-03-23T23:38:42.366Z,73.34
2018-03-23T23:41:10.994Z,73.24
2018-03-23T23:43:40.079Z,72.81
2018-03-23T23:46:08.599Z,73.08
2018-03-23T23:48:37.021Z,72.91
2018-03-23T23:51:05.530Z,73.12
2018-03-23T23:53:33.966Z,72.69
2018-03-23T23:56:02.384Z,71.84
2018-03-23T23:58:30.925Z,71.88
